Time;durP1;ratioP1;P1;durP2;ratioP2;P2;SDS_P1;SDS_P2;PMS_P1;PMS_P2;Temp;Humidity;BMP_temperature;BMP_pressure;BME280_temperature;BME280_humidity;BME280_pressure;Samples;Min_cycle;Max_cycle;Signal;HPM_P1;HPM_P2
2023/05/10 00:00:22;;;;;;;10.60;8.57;;;14.30;99.90;;;;;;4972762;28;20606;-81
2023/05/10 00:02:48;;;;;;;9.38;6.75;;;14.30;99.90;;;;;;4972082;28;20046;-81
2023/05/10 00:05:14;;;;;;;10.38;7.45;;;14.20;99.90;;;;;;4965772;28;20196;-81
2023/05/10 00:07:40;;;;;;;12.40;8.65;;;14.20;99.90;;;;;;4954078;28;20042;-81
2023/05/10 00:10:06;;;;;;;9.77;7.22;;;14.20;99.90;;;;;;4971062;28;20195;-81
2023/05/10 00:12:31;;;;;;;10.57;7.38;;;14.20;99.90;;;;;;4989423;28;20069;-81
2023/05/10 00:15:00;;;;;;;9.35;7.60;;;14.20;99.90;;;;;;4976806;28;20042;-82
2023/05/10 00:17:25;;;;;;;10.27;7.13;;;14.20;99.90;;;;;;4989192;28;20695;-82
2023/05/10 00:19:54;;;;;;;10.18;8.20;;;14.10;99.90;;;;;;4984790;28;20166;-82
2023/05/10 00:22:20;;;;;;;11.52;8.60;;;14.10;99.90;;;;;;4990905;28;20049;-82
2023/05/10 00:24:48;;;;;;;12.10;8.60;;;14.10;99.90;;;;;;4982591;28;20039;-82
2023/05/10 00:27:14;;;;;;;11.75;8.23;;;14.10;99.90;;;;;;4985445;28;20050;-81
2023/05/10 00:29:40;;;;;;;11.20;7.50;;;14.00;99.90;;;;;;4972225;28;20050;-82
2023/05/10 00:32:06;;;;;;;10.27;7.50;;;14.00;99.90;;;;;;4967392;28;20411;-81
2023/05/10 00:34:32;;;;;;;11.73;8.20;;;14.00;99.90;;;;;;4964852;28;20061;-81
2023/05/10 00:36:57;;;;;;;13.45;9.35;;;13.90;99.90;;;;;;4969942;28;20528;-81
2023/05/10 00:39:23;;;;;;;10.85;7.20;;;14.00;99.90;;;;;;4985638;28;20043;-82
2023/05/10 00:41:49;;;;;;;10.20;7.38;;;14.00;99.90;;;;;;4987941;28;20064;-81
2023/05/10 00:44:15;;;;;;;13.27;9.40;;;14.00;99.90;;;;;;4970824;28;20136;-81
2023/05/10 00:46:41;;;;;;;10.93;8.50;;;13.90;99.90;;;;;;4982607;28;20038;-81
2023/05/10 00:49:07;;;;;;;11.20;7.75;;;14.00;99.90;;;;;;4985685;28;20034;-81
2023/05/10 00:51:33;;;;;;;13.77;9.75;;;14.00;99.90;;;;;;4985221;28;20057;-81
2023/05/10 00:53:59;;;;;;;12.93;9.05;;;13.90;99.90;;;;;;4985746;28;20042;-81
2023/05/10 00:56:26;;;;;;;11.02;7.75;;;13.90;99.90;;;;;;4986502;28;20298;-81
2023/05/10 00:58:54;;;;;;;8.95;6.82;;;13.90;99.90;;;;;;4986421;28;20053;-81
2023/05/10 01:01:20;;;;;;;10.73;8.30;;;13.90;99.90;;;;;;4968442;28;20054;-81
2023/05/10 01:03:53;;;;;;;10.20;7.18;;;13.90;99.90;;;;;;4990547;28;20034;-81
2023/05/10 01:06:18;;;;;;;10.57;7.82;;;13.90;99.90;;;;;;4985003;28;20053;-81
2023/05/10 01:08:47;;;;;;;10.93;7.82;;;13.90;99.90;;;;;;4971480;28;20050;-81
2023/05/10 01:11:13;;;;;;;8.73;6.57;;;14.00;99.90;;;;;;4970921;28;20502;-81
2023/05/10 01:13:55;;;;;;;9.80;7.38;;;13.80;99.90;;;;;;4986992;28;20031;-81
2023/05/10 01:16:25;;;;;;;11.30;8.45;;;13.90;99.90;;;;;;4953792;28;20516;-81
2023/05/10 01:18:53;;;;;;;10.52;7.35;;;13.90;99.90;;;;;;4970993;28;20081;-81
2023/05/10 01:21:47;;;;;;;9.15;6.63;;;13.80;99.90;;;;;;4961933;28;20066;-81
2023/05/10 01:25:00;;;;;;;11.47;8.60;;;13.80;99.90;;;;;;4968892;28;20057;-81
2023/05/10 01:28:07;;;;;;;21.15;8.68;;;13.80;99.90;;;;;;4967146;28;20061;-81
2023/05/10 01:31:30;;;;;;;12.05;8.18;;;13.80;99.90;;;;;;4976284;28;20088;-81
2023/05/10 01:34:20;;;;;;;10.50;7.90;;;13.80;99.90;;;;;;4939155;29;20130;-81
2023/05/10 01:37:01;;;;;;;10.63;7.60;;;13.80;99.90;;;;;;4945827;29;20067;-81
2023/05/10 01:39:46;;;;;;;12.52;8.73;;;13.80;99.90;;;;;;4931566;28;20054;-82
2023/05/10 01:42:22;;;;;;;12.40;8.35;;;13.70;99.90;;;;;;4946350;29;20043;-82
2023/05/10 01:45:13;;;;;;;13.50;8.95;;;13.70;99.90;;;;;;4947910;29;20138;-81
2023/05/10 01:47:54;;;;;;;10.82;7.57;;;13.70;99.90;;;;;;4945930;29;20047;-81
2023/05/10 01:50:26;;;;;;;11.90;8.52;;;13.70;99.90;;;;;;4948231;29;20047;-81
2023/05/10 01:52:56;;;;;;;13.65;8.70;;;13.70;99.90;;;;;;4947472;29;20050;-81
2023/05/10 01:55:25;;;;;;;14.55;8.82;;;13.70;99.90;;;;;;4929878;29;20521;-81
2023/05/10 01:58:05;;;;;;;14.77;9.35;;;13.70;99.90;;;;;;4928573;29;20402;-81
2023/05/10 02:00:33;;;;;;;10.77;7.40;;;13.70;99.90;;;;;;4931834;29;20059;-81
2023/05/10 02:03:01;;;;;;;13.52;9.05;;;13.60;99.90;;;;;;4935203;29;20183;-81
2023/05/10 02:05:30;;;;;;;11.20;7.47;;;13.70;99.90;;;;;;4964458;28;20054;-81
2023/05/10 02:07:57;;;;;;;10.25;7.18;;;13.60;99.90;;;;;;4973933;28;20394;-81
2023/05/10 02:10:23;;;;;;;12.57;7.28;;;13.60;99.90;;;;;;4971318;28;20540;-81
2023/05/10 02:12:50;;;;;;;8.70;6.32;;;13.60;99.90;;;;;;4986011;28;20034;-81
2023/05/10 02:15:21;;;;;;;11.18;7.85;;;13.60;99.90;;;;;;4992774;28;20034;-82
2023/05/10 02:17:47;;;;;;;9.68;6.88;;;13.70;99.90;;;;;;4954233;28;20038;-81
2023/05/10 02:20:15;;;;;;;9.68;6.47;;;13.60;99.90;;;;;;4984339;28;20030;-81
2023/05/10 02:22:42;;;;;;;9.88;6.30;;;13.70;99.90;;;;;;4979808;28;20047;-82
2023/05/10 02:25:09;;;;;;;10.93;7.30;;;13.60;99.90;;;;;;4950764;28;20050;-82
2023/05/10 02:27:37;;;;;;;11.65;7.97;;;13.60;99.90;;;;;;4968739;28;20059;-81
2023/05/10 02:30:10;;;;;;;10.35;7.28;;;13.60;99.90;;;;;;4972621;28;20045;-81
2023/05/10 02:32:36;;;;;;;9.15;6.60;;;13.70;99.90;;;;;;4969129;28;20644;-81
2023/05/10 02:35:03;;;;;;;10.20;7.65;;;13.70;99.90;;;;;;4970228;28;20552;-81
2023/05/10 02:37:30;;;;;;;10.55;7.22;;;13.60;99.90;;;;;;4983900;28;20043;-81
2023/05/10 02:39:57;;;;;;;16.65;9.82;;;13.60;99.90;;;;;;4974766;28;20112;-81
2023/05/10 02:42:27;;;;;;;11.93;8.38;;;13.60;99.90;;;;;;4982156;28;20104;-81
2023/05/10 02:44:59;;;;;;;12.18;8.30;;;13.60;99.90;;;;;;4992848;28;20038;-81
2023/05/10 02:47:25;;;;;;;16.90;10.48;;;13.60;99.90;;;;;;4985255;28;20077;-81
2023/05/10 02:49:51;;;;;;;12.15;8.30;;;13.60;99.90;;;;;;4985515;28;20042;-81
2023/05/10 02:52:24;;;;;;;10.95;7.97;;;13.60;99.90;;;;;;4986134;28;20050;-81
2023/05/10 02:54:55;;;;;;;12.82;8.68;;;13.50;99.90;;;;;;4968198;28;20049;-81
2023/05/10 02:57:29;;;;;;;13.13;8.77;;;13.50;99.90;;;;;;4986588;28;20042;-81
2023/05/10 02:59:58;;;;;;;13.70;9.40;;;13.50;99.90;;;;;;4988331;28;20137;-81
2023/05/10 03:02:27;;;;;;;12.93;8.85;;;13.50;99.90;;;;;;4955444;28;20088;-81
2023/05/10 03:04:56;;;;;;;15.15;10.27;;;13.50;99.90;;;;;;4984462;28;20049;-81
2023/05/10 03:07:27;;;;;;;13.57;10.00;;;13.50;99.90;;;;;;4972236;28;20082;-81
2023/05/10 03:09:56;;;;;;;10.70;7.65;;;13.50;99.90;;;;;;4988249;28;20069;-81
2023/05/10 03:12:58;;;;;;;14.38;9.93;;;13.40;99.90;;;;;;4987124;28;20034;-81
2023/05/10 03:15:48;;;;;;;12.82;8.95;;;13.40;99.90;;;;;;4982854;28;20125;-81
2023/05/10 03:18:43;;;;;;;15.82;10.70;;;13.40;99.90;;;;;;4971574;28;20129;-81
2023/05/10 03:21:12;;;;;;;18.55;12.93;;;13.40;99.90;;;;;;4972178;28;20049;-81
2023/05/10 03:23:52;;;;;;;16.50;10.30;;;13.40;99.90;;;;;;4966529;28;20054;-82
2023/05/10 03:26:25;;;;;;;18.90;11.35;;;13.40;99.90;;;;;;4965958;28;20046;-81
2023/05/10 03:28:53;;;;;;;17.63;11.67;;;13.40;99.90;;;;;;4986636;28;20043;-81
2023/05/10 03:31:18;;;;;;;19.35;11.77;;;13.40;99.90;;;;;;4986696;28;20050;-81
2023/05/10 03:33:51;;;;;;;18.10;11.00;;;13.40;99.90;;;;;;4986158;28;20045;-81
2023/05/10 03:36:18;;;;;;;20.85;12.02;;;13.30;99.90;;;;;;4967321;28;20046;-81
2023/05/10 03:38:44;;;;;;;21.05;12.60;;;13.30;99.90;;;;;;4984877;28;20041;-81
2023/05/10 03:41:12;;;;;;;15.20;9.55;;;13.30;99.90;;;;;;4954803;28;20045;-81
2023/05/10 03:43:38;;;;;;;22.20;13.85;;;13.30;99.90;;;;;;4981775;28;20034;-82
2023/05/10 03:46:04;;;;;;;17.67;11.00;;;13.30;99.90;;;;;;4964137;28;20043;-81
2023/05/10 03:48:32;;;;;;;21.30;13.50;;;13.30;99.90;;;;;;4969884;28;20046;-81
2023/05/10 03:50:58;;;;;;;20.20;11.95;;;13.30;99.90;;;;;;4982545;28;20119;-82
2023/05/10 03:53:24;;;;;;;25.52;14.32;;;13.30;99.90;;;;;;4972407;28;20113;-81
2023/05/10 03:55:49;;;;;;;22.27;14.00;;;13.20;99.90;;;;;;4970797;28;20465;-81
2023/05/10 03:58:15;;;;;;;18.15;10.77;;;13.30;99.90;;;;;;4990491;28;20038;-81
2023/05/10 04:00:43;;;;;;;16.83;10.93;;;13.20;99.90;;;;;;4964197;28;20050;-81
2023/05/10 04:03:16;;;;;;;21.92;12.95;;;13.30;99.90;;;;;;4982576;28;20054;-81
2023/05/10 04:05:41;;;;;;;22.50;13.50;;;13.20;99.90;;;;;;4964578;28;20050;-82
2023/05/10 04:08:07;;;;;;;16.83;10.98;;;13.20;99.90;;;;;;4968122;28;20047;-81
2023/05/10 04:10:32;;;;;;;18.55;12.50;;;13.20;99.90;;;;;;4961961;28;21910;-81
2023/05/10 04:12:58;;;;;;;18.85;12.93;;;13.20;99.90;;;;;;4982749;28;20035;-81
2023/05/10 04:15:24;;;;;;;18.50;11.20;;;13.10;99.90;;;;;;4970171;28;21041;-81
2023/05/10 04:17:50;;;;;;;21.42;12.75;;;13.20;99.90;;;;;;4967729;28;20101;-81
2023/05/10 04:20:16;;;;;;;15.52;11.05;;;13.10;99.90;;;;;;4965297;28;20038;-81
2023/05/10 04:22:42;;;;;;;17.83;12.07;;;13.20;99.90;;;;;;4965635;28;20052;-82
2023/05/10 04:25:08;;;;;;;16.20;10.85;;;13.20;99.90;;;;;;4982229;28;20632;-81
2023/05/10 04:27:34;;;;;;;18.33;11.35;;;13.20;99.90;;;;;;4963681;28;20039;-81
2023/05/10 04:30:09;;;;;;;17.67;11.25;;;13.20;99.90;;;;;;4968042;28;20206;-81
2023/05/10 04:32:34;;;;;;;16.30;10.10;;;13.20;99.90;;;;;;4981586;28;20425;-81
2023/05/10 04:35:02;;;;;;;13.45;9.18;;;13.20;99.90;;;;;;4967729;28;20043;-81
2023/05/10 04:37:28;;;;;;;17.80;11.45;;;13.20;99.90;;;;;;4979609;28;20043;-81
2023/05/10 04:39:57;;;;;;;13.45;9.43;;;13.10;99.90;;;;;;4966455;28;20785;-81
2023/05/10 04:42:22;;;;;;;11.25;8.50;;;13.10;99.90;;;;;;4965882;28;20053;-81
2023/05/10 04:44:48;;;;;;;14.60;9.57;;;13.20;99.90;;;;;;4968249;28;20397;-82
2023/05/10 04:47:14;;;;;;;12.63;8.43;;;13.10;99.90;;;;;;4971904;28;20046;-81
2023/05/10 04:49:39;;;;;;;13.82;8.73;;;13.20;99.90;;;;;;4966628;28;20031;-81
2023/05/10 04:52:05;;;;;;;13.85;10.18;;;13.10;99.90;;;;;;4966584;28;20457;-81
2023/05/10 04:54:31;;;;;;;14.95;9.50;;;13.10;99.90;;;;;;4966766;28;20070;-81
2023/05/10 04:56:56;;;;;;;13.32;9.43;;;13.20;99.90;;;;;;4968708;28;20418;-82
2023/05/10 04:59:22;;;;;;;11.75;8.55;;;13.20;99.90;;;;;;4965069;28;20215;-81
2023/05/10 05:01:48;;;;;;;11.30;8.32;;;13.10;99.90;;;;;;4966390;28;20098;-81
2023/05/10 05:04:14;;;;;;;12.15;8.68;;;13.10;99.90;;;;;;4955620;28;20041;-81
2023/05/10 05:06:40;;;;;;;10.45;8.25;;;13.10;99.90;;;;;;4951007;29;20050;-81
2023/05/10 05:09:05;;;;;;;10.25;7.60;;;13.10;99.90;;;;;;4962238;28;20036;-82
2023/05/10 05:11:31;;;;;;;13.20;8.52;;;13.10;99.90;;;;;;4949881;28;20047;-81
2023/05/10 05:13:58;;;;;;;9.80;7.63;;;13.10;99.90;;;;;;4948164;28;20046;-81
2023/05/10 05:16:25;;;;;;;10.13;7.47;;;13.10;99.90;;;;;;4950816;28;20046;-81
2023/05/10 05:18:51;;;;;;;13.13;8.23;;;13.10;99.90;;;;;;4964821;28;20409;-81
2023/05/10 05:21:17;;;;;;;9.93;7.35;;;13.20;99.90;;;;;;4953999;28;20031;-81
2023/05/10 05:23:45;;;;;;;12.00;7.18;;;13.10;99.90;;;;;;4942740;28;20044;-82
2023/05/10 05:26:11;;;;;;;10.35;6.82;;;13.10;99.90;;;;;;4950382;29;20031;-82
2023/05/10 05:28:37;;;;;;;8.25;6.38;;;13.10;99.90;;;;;;4951096;28;20043;-81
2023/05/10 05:31:04;;;;;;;8.80;6.38;;;13.10;99.90;;;;;;4948611;28;20039;-81
2023/05/10 05:33:29;;;;;;;9.10;7.07;;;13.20;99.90;;;;;;4950683;28;20043;-81
2023/05/10 05:36:02;;;;;;;7.60;5.60;;;13.10;99.90;;;;;;4951875;28;20406;-82
2023/05/10 05:38:28;;;;;;;8.38;6.55;;;13.10;99.90;;;;;;4946554;28;20122;-82
2023/05/10 05:40:53;;;;;;;7.15;5.30;;;13.40;99.90;;;;;;4953635;28;20170;-82
2023/05/10 05:43:19;;;;;;;7.85;5.32;;;13.10;99.90;;;;;;4948890;28;20126;-82
2023/05/10 05:45:45;;;;;;;6.57;4.82;;;13.10;99.90;;;;;;4951723;28;20162;-81
2023/05/10 05:48:11;;;;;;;8.75;5.78;;;13.20;99.90;;;;;;4951090;29;20047;-83
2023/05/10 05:50:39;;;;;;;6.80;4.95;;;13.10;99.90;;;;;;4948548;29;20035;-83
2023/05/10 05:53:05;;;;;;;7.75;4.85;;;13.20;99.90;;;;;;4960652;28;20043;-82
2023/05/10 05:55:31;;;;;;;7.32;3.85;;;13.10;99.90;;;;;;4948842;28;20059;-83
2023/05/10 05:57:57;;;;;;;4.97;3.10;;;13.20;99.90;;;;;;4951337;29;20489;-82
2023/05/10 06:00:24;;;;;;;5.40;2.90;;;13.10;99.90;;;;;;4975033;28;20141;-82
2023/05/10 06:02:49;;;;;;;6.32;3.50;;;13.10;99.90;;;;;;4971246;28;20039;-82
2023/05/10 06:05:15;;;;;;;5.50;3.28;;;13.10;99.90;;;;;;4982728;28;20121;-82
2023/05/10 06:07:44;;;;;;;5.18;3.25;;;13.10;99.90;;;;;;4969391;28;20050;-86
2023/05/10 06:10:10;;;;;;;4.50;2.80;;;13.10;99.90;;;;;;4974578;28;20077;-83
2023/05/10 06:12:36;;;;;;;4.88;3.08;;;13.10;99.90;;;;;;4964881;28;20079;-82
2023/05/10 06:15:02;;;;;;;4.00;2.60;;;13.20;99.90;;;;;;4968322;28;20630;-81
2023/05/10 06:17:34;;;;;;;4.50;2.80;;;13.20;99.90;;;;;;4972642;28;20039;-81
2023/05/10 06:20:00;;;;;;;3.63;2.53;;;13.20;99.90;;;;;;4963150;28;20031;-82
2023/05/10 06:22:25;;;;;;;8.30;2.72;;;13.20;99.90;;;;;;4971954;28;20054;-83
2023/05/10 06:24:51;;;;;;;2.95;1.75;;;13.10;99.90;;;;;;4960487;28;20122;-82
2023/05/10 06:27:17;;;;;;;4.10;1.90;;;13.10;99.90;;;;;;4972220;28;20489;-83
2023/05/10 06:29:42;;;;;;;3.17;1.73;;;13.10;99.90;;;;;;4965859;28;20043;-84
2023/05/10 06:32:08;;;;;;;3.17;1.50;;;13.10;99.90;;;;;;4972467;28;20074;-83
2023/05/10 06:34:34;;;;;;;3.35;1.83;;;13.10;99.90;;;;;;4972658;28;20058;-80
2023/05/10 06:37:00;;;;;;;2.85;1.42;;;13.20;99.90;;;;;;4966486;28;20489;-86
2023/05/10 06:39:25;;;;;;;2.35;1.30;;;13.10;99.90;;;;;;4967630;28;20077;-83
2023/05/10 06:41:51;;;;;;;3.45;1.40;;;13.10;99.90;;;;;;4974557;28;20034;-83
2023/05/10 06:44:17;;;;;;;1.77;0.90;;;13.10;99.90;;;;;;4983324;28;20312;-83
2023/05/10 06:46:43;;;;;;;2.47;1.08;;;13.20;99.90;;;;;;4967031;28;20090;-83
2023/05/10 06:49:09;;;;;;;2.05;0.85;;;13.20;99.90;;;;;;4976816;28;20086;-83
2023/05/10 06:51:34;;;;;;;1.38;0.80;;;13.60;99.90;;;;;;4970881;28;20051;-83
2023/05/10 06:54:01;;;;;;;3.00;1.15;;;13.20;99.90;;;;;;4969522;28;20521;-83
2023/05/10 06:56:26;;;;;;;1.27;0.60;;;13.20;99.90;;;;;;4964140;28;20051;-83
2023/05/10 06:58:52;;;;;;;2.15;0.90;;;13.20;99.90;;;;;;4967112;28;20073;-83
2023/05/10 07:01:18;;;;;;;5.28;1.15;;;13.20;99.90;;;;;;4984612;28;20050;-83
2023/05/10 07:03:43;;;;;;;2.40;1.05;;;13.20;99.90;;;;;;4971376;28;20111;-83
2023/05/10 07:06:09;;;;;;;3.10;1.00;;;13.20;99.90;;;;;;4977147;28;20173;-83
2023/05/10 07:08:35;;;;;;;1.33;0.70;;;13.20;99.90;;;;;;4969449;28;20177;-83
2023/05/10 07:11:06;;;;;;;1.73;0.88;;;13.20;99.90;;;;;;4962729;28;20061;-84
2023/05/10 07:13:33;;;;;;;3.05;1.05;;;13.20;99.90;;;;;;4988608;28;20508;-85
2023/05/10 07:16:00;;;;;;;3.97;1.00;;;13.20;99.90;;;;;;4988939;28;20254;-84
2023/05/10 07:18:26;;;;;;;2.15;0.90;;;13.20;99.90;;;;;;4985400;28;20050;-82
2023/05/10 07:20:52;;;;;;;2.22;0.80;;;13.20;99.90;;;;;;4976625;28;20053;-83
2023/05/10 07:23:18;;;;;;;1.33;0.60;;;13.30;99.90;;;;;;4972273;28;20047;-83
2023/05/10 07:25:53;;;;;;;1.40;0.65;;;13.20;99.90;;;;;;4992515;28;20050;-85
2023/05/10 07:28:19;;;;;;;1.73;0.60;;;13.20;99.90;;;;;;4986434;28;20034;-84
2023/05/10 07:30:46;;;;;;;1.23;0.73;;;13.30;99.90;;;;;;4994936;28;20042;-84
2023/05/10 07:33:12;;;;;;;1.42;0.40;;;13.30;99.90;;;;;;4965933;28;20046;-83
2023/05/10 07:35:39;;;;;;;0.90;0.45;;;13.30;99.90;;;;;;4974030;28;20512;-84
2023/05/10 07:38:05;;;;;;;1.17;0.50;;;13.30;99.90;;;;;;4983996;28;20047;-84
2023/05/10 07:40:31;;;;;;;1.10;0.50;;;13.30;99.90;;;;;;4960973;28;20038;-85
2023/05/10 07:42:56;;;;;;;1.27;0.60;;;13.40;99.90;;;;;;4984441;28;20051;-84
2023/05/10 07:45:23;;;;;;;1.05;0.57;;;13.40;99.90;;;;;;4973114;28;20110;-85
2023/05/10 07:47:49;;;;;;;1.35;0.50;;;13.50;99.90;;;;;;4986823;28;20317;-85
2023/05/10 07:50:18;;;;;;;0.73;0.40;;;13.50;99.90;;;;;;4976383;28;20038;-85
2023/05/10 07:52:44;;;;;;;1.63;0.60;;;13.50;99.90;;;;;;4973724;28;20034;-85
2023/05/10 07:55:10;;;;;;;1.42;0.80;;;13.60;99.90;;;;;;4962976;28;20552;-85
2023/05/10 07:57:36;;;;;;;1.48;0.60;;;13.60;99.90;;;;;;4966578;28;20408;-85
2023/05/10 08:00:02;;;;;;;1.30;0.75;;;13.60;99.90;;;;;;4985712;28;20047;-85
2023/05/10 08:02:28;;;;;;;1.60;1.00;;;13.60;99.90;;;;;;4977533;28;20065;-85
2023/05/10 08:04:55;;;;;;;2.05;1.15;;;13.60;99.90;;;;;;4982041;28;20042;-84
2023/05/10 08:07:21;;;;;;;2.63;1.00;;;13.50;99.90;;;;;;4964522;28;20081;-84
2023/05/10 08:09:47;;;;;;;3.08;1.95;;;13.50;99.90;;;;;;4966148;28;20046;-84
2023/05/10 08:12:12;;;;;;;2.80;1.83;;;13.50;99.90;;;;;;4996235;28;20414;-85
2023/05/10 08:14:38;;;;;;;3.55;1.95;;;13.50;99.90;;;;;;4987833;28;20034;-85
2023/05/10 08:17:04;;;;;;;3.22;2.10;;;13.50;99.90;;;;;;4990443;28;20516;-86
2023/05/10 08:19:30;;;;;;;4.65;2.33;;;13.50;99.90;;;;;;4970844;28;20045;-85
2023/05/10 08:21:56;;;;;;;3.40;2.10;;;13.50;99.90;;;;;;4984781;28;20497;-85
2023/05/10 08:24:23;;;;;;;3.78;2.42;;;13.50;99.90;;;;;;4989239;28;20046;-85
2023/05/10 08:26:49;;;;;;;4.30;2.70;;;13.50;99.90;;;;;;4980525;28;20406;-85
2023/05/10 08:29:15;;;;;;;4.03;2.33;;;13.50;99.90;;;;;;4986175;28;20047;-83
2023/05/10 08:31:41;;;;;;;4.53;2.85;;;13.50;99.90;;;;;;4992998;28;20082;-84
2023/05/10 08:34:06;;;;;;;5.00;3.30;;;13.50;99.90;;;;;;4955725;28;20112;-85
2023/05/10 08:36:32;;;;;;;4.20;2.67;;;13.50;99.90;;;;;;4947196;28;20117;-85
2023/05/10 08:38:58;;;;;;;5.28;3.17;;;13.50;99.90;;;;;;4969071;28;20038;-85
2023/05/10 08:41:25;;;;;;;4.28;2.88;;;13.50;99.90;;;;;;4974625;28;20042;-85
2023/05/10 08:43:52;;;;;;;4.80;3.25;;;13.50;99.90;;;;;;4983317;28;20108;-84
2023/05/10 11:43:42;;;;;;;7.43;4.70;;;14.90;99.90;;;;;;5013003;28;20049;-85
2023/05/10 11:46:10;;;;;;;10.00;4.78;;;14.90;99.90;;;;;;5025440;28;20034;-82
2023/05/10 11:48:39;;;;;;;10.93;5.43;;;14.90;99.90;;;;;;5026945;28;20057;-82
2023/05/10 11:51:07;;;;;;;7.20;4.70;;;14.80;99.90;;;;;;5019112;28;20435;-83
2023/05/10 11:53:33;;;;;;;8.07;4.88;;;14.80;99.90;;;;;;5017336;28;20136;-83
2023/05/10 11:56:09;;;;;;;8.50;4.85;;;14.80;99.90;;;;;;5021606;28;20042;-82
2023/05/10 11:58:35;;;;;;;7.03;4.30;;;14.80;99.90;;;;;;5008741;28;20354;-81
2023/05/10 12:01:02;;;;;;;7.63;4.45;;;14.80;99.90;;;;;;5016702;28;20401;-80
2023/05/10 12:03:29;;;;;;;8.02;4.60;;;14.80;99.90;;;;;;5018834;28;20048;-80
2023/05/10 12:05:56;;;;;;;8.35;4.45;;;14.80;99.90;;;;;;5016861;28;20033;-80
2023/05/10 12:08:24;;;;;;;9.07;5.65;;;14.90;99.90;;;;;;5013555;28;20104;-80
2023/05/10 12:10:50;;;;;;;9.63;4.97;;;14.90;99.90;;;;;;5009275;28;20078;-81
2023/05/10 12:13:17;;;;;;;7.63;4.78;;;15.00;99.90;;;;;;5024013;28;20587;-80
2023/05/10 12:15:43;;;;;;;8.00;4.47;;;15.00;99.90;;;;;;5015590;28;20053;-81
2023/05/10 12:18:10;;;;;;;9.10;4.72;;;15.00;99.90;;;;;;5019532;28;20034;-80
2023/05/10 12:20:36;;;;;;;7.72;4.65;;;15.00;99.90;;;;;;5007435;28;20053;-80
2023/05/10 12:23:03;;;;;;;7.15;4.65;;;15.10;99.90;;;;;;5006740;28;20042;-80
2023/05/10 12:25:39;;;;;;;10.38;5.65;;;15.10;99.90;;;;;;5024873;28;20496;-80
2023/05/10 12:28:07;;;;;;;7.20;4.68;;;15.10;99.90;;;;;;5007515;28;20034;-80
2023/05/10 12:30:34;;;;;;;8.50;5.05;;;15.10;99.90;;;;;;5010684;28;20049;-80
2023/05/10 12:33:09;;;;;;;9.35;5.40;;;15.10;99.90;;;;;;5014149;28;20388;-81
2023/05/10 12:35:47;;;;;;;8.68;5.15;;;15.10;99.90;;;;;;5018596;28;20042;-79
2023/05/10 12:38:37;;;;;;;10.70;6.20;;;15.10;99.90;;;;;;5021910;28;20055;-79
2023/05/10 12:41:08;;;;;;;10.48;5.53;;;15.10;99.90;;;;;;5010897;28;20038;-81
2023/05/10 12:43:35;;;;;;;8.75;5.63;;;15.00;99.90;;;;;;5013456;28;20061;-91
2023/05/10 12:46:05;;;;;;;10.60;5.90;;;15.10;99.90;;;;;;5020025;28;20042;-83
2023/05/10 12:48:31;;;;;;;10.27;5.82;;;15.10;99.90;;;;;;5016337;28;20567;-83
2023/05/10 12:50:57;;;;;;;10.38;6.03;;;15.20;99.90;;;;;;5014301;28;20036;-84
2023/05/10 12:53:23;;;;;;;9.55;5.55;;;15.50;99.90;;;;;;5007602;28;20050;-84
2023/05/10 12:55:49;;;;;;;11.23;5.57;;;15.20;99.90;;;;;;5014671;28;20034;-83
2023/05/10 12:58:15;;;;;;;10.15;6.07;;;15.30;99.90;;;;;;5018997;28;20042;-83
2023/05/10 13:00:40;;;;;;;9.80;5.88;;;15.30;99.90;;;;;;5014970;28;20515;-83
2023/05/10 13:03:06;;;;;;;10.95;5.65;;;15.30;99.90;;;;;;5015495;28;20080;-84
2023/05/10 13:05:38;;;;;;;9.10;5.45;;;15.40;99.90;;;;;;5011187;28;20148;-83
2023/05/10 13:08:04;;;;;;;9.18;5.80;;;15.40;99.90;;;;;;5017371;28;20495;-83
2023/05/10 13:10:31;;;;;;;10.77;6.18;;;15.40;99.90;;;;;;5018572;28;20038;-83
2023/05/10 13:12:58;;;;;;;9.80;5.95;;;15.50;99.90;;;;;;5013308;28;20038;-83
2023/05/10 13:15:25;;;;;;;13.07;6.30;;;15.50;99.90;;;;;;5004467;28;20046;-83
2023/05/10 13:17:51;;;;;;;8.75;5.38;;;15.50;99.90;;;;;;5021320;28;20041;-83
2023/05/10 13:20:17;;;;;;;9.75;5.55;;;15.40;99.90;;;;;;5014200;28;20485;-82
2023/05/10 13:22:44;;;;;;;10.63;5.75;;;15.40;99.90;;;;;;5014803;28;20046;-83
2023/05/10 13:25:10;;;;;;;9.05;5.10;;;15.40;99.90;;;;;;5020651;28;20532;-82
2023/05/10 13:27:37;;;;;;;8.75;5.15;;;15.40;99.90;;;;;;5014407;28;20033;-83
2023/05/10 13:30:03;;;;;;;10.43;5.63;;;15.40;99.90;;;;;;5025681;28;20048;-84
2023/05/10 13:32:29;;;;;;;10.07;5.85;;;15.40;99.90;;;;;;5014649;28;20168;-84
2023/05/10 13:34:55;;;;;;;9.52;5.50;;;15.40;99.90;;;;;;5022583;28;20049;-84
2023/05/10 13:37:22;;;;;;;8.50;5.40;;;15.40;99.90;;;;;;5014069;28;20132;-82
2023/05/10 13:39:48;;;;;;;9.25;4.93;;;15.40;99.90;;;;;;5013837;28;20218;-84
2023/05/10 13:42:14;;;;;;;9.05;5.63;;;15.40;99.90;;;;;;5013478;28;20077;-84
2023/05/10 13:44:40;;;;;;;8.18;5.10;;;15.40;99.90;;;;;;5019932;28;20077;-84
2023/05/10 13:47:06;;;;;;;10.30;6.10;;;15.40;99.90;;;;;;5018290;28;20033;-83
2023/05/10 13:49:32;;;;;;;9.70;5.18;;;15.50;99.90;;;;;;5006222;28;20034;-83
2023/05/10 13:51:58;;;;;;;9.32;5.15;;;15.40;99.90;;;;;;5013072;28;20042;-83
2023/05/10 13:54:25;;;;;;;12.18;6.28;;;15.40;99.90;;;;;;5014690;28;20386;-83
2023/05/10 13:56:50;;;;;;;9.70;6.00;;;15.40;99.90;;;;;;5012772;28;20038;-84
2023/05/10 13:59:16;;;;;;;10.20;5.57;;;15.40;99.90;;;;;;5019402;28;20154;-83
2023/05/10 14:01:45;;;;;;;14.27;6.10;;;15.40;99.90;;;;;;5014520;28;20177;-83
2023/05/10 14:04:11;;;;;;;10.23;5.45;;;15.30;99.90;;;;;;5022105;28;20049;-83
2023/05/10 14:06:37;;;;;;;8.18;5.13;;;15.30;99.90;;;;;;5012724;28;20041;-83
2023/05/10 14:09:03;;;;;;;10.73;5.40;;;15.40;99.90;;;;;;5021204;28;20057;-83
2023/05/10 14:11:29;;;;;;;9.23;5.55;;;15.30;99.90;;;;;;5073175;22;20280;-83
2023/05/10 14:13:55;;;;;;;7.82;5.25;;;14.60;99.90;;;;;;5000120;28;20076;-83
2023/05/10 14:16:21;;;;;;;9.10;5.43;;;15.50;99.90;;;;;;4997944;28;20541;-83
2023/05/10 14:18:47;;;;;;;11.60;5.00;;;15.20;99.90;;;;;;4998636;28;20121;-84
2023/05/10 14:21:13;;;;;;;8.57;5.20;;;15.20;99.90;;;;;;4994199;28;20109;-83
2023/05/10 14:23:45;;;;;;;9.80;5.25;;;16.20;99.90;;;;;;4993069;28;20093;-83
2023/05/10 14:26:11;;;;;;;8.60;5.47;;;15.10;99.90;;;;;;4991204;28;20053;-83
2023/05/10 14:28:37;;;;;;;10.48;5.97;;;15.20;99.90;;;;;;4995995;28;20042;-83
2023/05/10 14:31:03;;;;;;;7.85;5.22;;;15.20;99.90;;;;;;4995569;28;20026;-82
2023/05/10 14:33:29;;;;;;;9.45;5.22;;;15.10;99.90;;;;;;5072029;23;21307;-83
2023/05/10 14:35:57;;;;;;;10.43;6.10;;;15.20;99.90;;;;;;5015072;28;20046;-84
2023/05/10 14:38:26;;;;;;;8.95;5.07;;;15.20;99.90;;;;;;4993844;28;20046;-83
2023/05/10 14:40:52;;;;;;;9.88;5.82;;;15.30;99.90;;;;;;4997411;28;20041;-87
2023/05/10 14:43:17;;;;;;;9.65;5.80;;;15.30;99.90;;;;;;5009221;28;20048;-89
2023/05/10 14:45:44;;;;;;;9.73;5.55;;;15.30;99.90;;;;;;5011406;28;20034;-89
2023/05/10 14:48:15;;;;;;;10.73;6.00;;;15.30;99.90;;;;;;5025873;28;20492;-90
2023/05/10 14:50:41;;;;;;;8.73;5.38;;;15.40;99.90;;;;;;5005495;28;20076;-81
2023/05/10 14:53:07;;;;;;;11.90;5.47;;;15.40;99.90;;;;;;5003513;28;20050;-82
2023/05/10 14:55:32;;;;;;;12.27;5.95;;;15.40;99.90;;;;;;5005230;28;20091;-84
2023/05/10 14:57:58;;;;;;;8.73;5.28;;;15.50;99.90;;;;;;5018549;28;20100;-83
2023/05/10 15:00:24;;;;;;;9.48;5.63;;;15.50;99.90;;;;;;5011264;28;20113;-83
2023/05/10 15:02:49;;;;;;;8.77;5.30;;;15.60;99.90;;;;;;5027065;28;20044;-83
2023/05/10 15:05:15;;;;;;;9.50;5.80;;;15.60;99.90;;;;;;5015964;28;20818;-83
2023/05/10 15:07:43;;;;;;;11.00;6.13;;;15.60;99.90;;;;;;5015522;28;20079;-83
2023/05/10 15:10:11;;;;;;;8.43;4.65;;;15.60;99.90;;;;;;5010313;28;20506;-83
2023/05/10 15:12:37;;;;;;;11.35;6.68;;;15.70;99.90;;;;;;5008488;28;20057;-82
2023/05/10 15:15:03;;;;;;;12.88;7.55;;;15.70;99.90;;;;;;5000924;28;20034;-82
2023/05/10 15:17:30;;;;;;;11.82;7.05;;;15.70;99.90;;;;;;4993727;28;20054;-82
2023/05/10 15:19:55;;;;;;;11.77;7.15;;;15.70;99.90;;;;;;4998417;28;20519;-82
2023/05/10 15:22:22;;;;;;;11.02;6.30;;;15.70;99.90;;;;;;4995598;28;20050;-82
2023/05/10 15:24:47;;;;;;;9.25;6.47;;;15.70;99.90;;;;;;4986626;28;20056;-83
2023/05/10 15:27:13;;;;;;;13.05;6.93;;;15.70;99.90;;;;;;5011992;28;20046;-83
2023/05/10 15:29:39;;;;;;;11.57;6.53;;;15.70;99.90;;;;;;4981849;28;20053;-84
2023/05/10 15:32:05;;;;;;;11.65;7.38;;;15.70;99.90;;;;;;4999769;28;20056;-84
2023/05/10 15:34:31;;;;;;;10.40;7.07;;;15.60;99.90;;;;;;5001776;28;20049;-84
2023/05/10 15:36:57;;;;;;;11.10;6.70;;;15.60;99.90;;;;;;4998544;28;20100;-84
2023/05/10 15:39:22;;;;;;;9.27;6.25;;;15.60;99.90;;;;;;5003857;28;20045;-83
2023/05/10 15:41:51;;;;;;;10.55;5.57;;;15.60;99.90;;;;;;4997282;28;20049;-83